Terminal Aerodrome Forecast
Issued by NWS

Home | Current Version | Previous Version | Text Only | Print | Product List | Glossary On
Versions: 1 2 3 4 5 6 7 8 9 10 11 12 13 14 15 16
000
FTUS44 KTSA 250544 AAA
TAFBVO
TAF AMD
KBVO 250544Z 2506/2606 VRB03KT P6SM VCTS BKN080CB
      TEMPO 2506/2508 2SM TSRA
     FM250900 35004KT P6SM OVC040
     FM251300 32010KT P6SM OVC025
     FM252000 30005KT P6SM OVC050=

USA.gov is the U.S. government's official web portal to all federal, state and local government web resources and services.